Secor, Illinois
Current Conditions -  °F | °C
As of 11:56 AM on Saturday 25 Oct 2014 (Local Time) from KBMI Reporting Station
Clear Clear  
Wind Chill: 67°   Ceiling: Unl
Heat Index: 67°   Visibility: 9mi
Dew Point: 57°   Wind: 8mph
Humidity: 70%   Direction: 310°NW
Pressure: 30.03"   Gusts: NA
Location:  40.74°N, 89.14°W
Report Text: KBMI 251656Z 31007KT 9SM CLR 19/14 A3003 RMK AO2 T01940138 SLP163
Loading
Personal Weather Stations






























Interactive Weather Map
Tropical Storm Tracking
New forecast layout! Learn more

10-Day Weather Forecast

Advertisements
Track Severe Weather on mobile